Battle Ground, Washington
Current Conditions -  °F | °C
As of 8:53 PM on Monday 20 Oct 2014 (Local Time) from KVUO Reporting Station
Scattered Clouds Scattered Clouds  
Wind Chill: 56°   Ceiling: Unl
Heat Index: 56°   Visibility: 10mi
Dew Point: 51°   Wind: 5mph
Humidity: 84%   Direction: 120°ESE
Pressure: 29.83"   Gusts: NA
Location:  45.78°N, 122.53°W
Report Text: KVUO 210353Z AUTO 12004KT 10SM SCT070 13/11 A2983 RMK AO2 SLP103 T01330106
Loading
Personal Weather Stations






























Interactive Weather Map
Tropical Storm Tracking
New forecast layout! Learn more

10-Day Weather Forecast

Advertisements
Track Severe Weather on mobile